Time;durP1;ratioP1;P1;durP2;ratioP2;P2;SDS_P1;SDS_P2;PMS_P1;PMS_P2;Temp;Humidity;BMP_temperature;BMP_pressure;BME280_temperature;BME280_humidity;BME280_pressure;Samples;Min_cycle;Max_cycle;Signal;HPM_P1;HPM_P2
2023/04/04 00:00:12;;;;;;;24.85;21.52;;;;;;;9.17;88.29;149601.59;5084736;28;20044;-65
2023/04/04 00:02:38;;;;;;;22.77;19.35;;;;;;;9.20;87.61;149608.00;5096230;28;20048;-66
2023/04/04 00:05:06;;;;;;;23.05;20.08;;;;;;;9.18;87.99;149604.16;5094098;28;20040;-66
2023/04/04 00:07:32;;;;;;;22.77;18.67;;;;;;;9.29;88.04;149631.03;5086852;28;20096;-67
2023/04/04 00:09:57;;;;;;;22.83;19.05;;;;;;;9.30;87.22;149633.63;5103111;28;20024;-67
2023/04/04 00:12:23;;;;;;;24.65;20.27;;;;;;;9.22;87.14;149614.41;5083356;28;20024;-66
2023/04/04 00:14:49;;;;;;;24.15;19.50;;;;;;;9.29;87.55;149631.03;5097671;28;20051;-67
2023/04/04 00:17:15;;;;;;;21.50;19.13;;;;;;;9.32;87.55;149638.75;5092731;28;20055;-67
2023/04/04 00:19:41;;;;;;;22.67;19.05;;;;;;;9.24;87.79;149618.25;5087630;28;20293;-66
2023/04/04 00:22:07;;;;;;;25.33;18.80;;;;;;;9.22;86.96;149614.41;5103058;28;20052;-68
2023/04/04 00:24:33;;;;;;;25.90;20.38;;;;;;;9.21;87.25;149610.56;5102856;28;20032;-67
2023/04/04 00:26:59;;;;;;;22.15;19.58;;;;;;;9.15;87.37;149596.47;5102810;28;20122;-69
2023/04/04 00:29:24;;;;;;;21.50;19.00;;;;;;;9.12;87.69;149588.75;5091552;28;20032;-68
2023/04/04 00:31:50;;;;;;;21.83;18.58;;;;;;;9.27;87.62;149627.19;5088964;28;20049;-68
2023/04/04 00:34:16;;;;;;;26.85;19.67;;;;;;;9.20;87.78;149609.25;5092783;28;20032;-68
2023/04/04 00:36:42;;;;;;;23.08;18.80;;;;;;;9.14;87.28;149595.16;5102819;28;20276;-67
2023/04/04 00:39:07;;;;;;;24.80;19.80;;;;;;;9.09;87.02;149582.41;5085310;28;20051;-68
2023/04/04 00:41:33;;;;;;;21.02;18.63;;;;;;;9.15;87.10;149597.75;5082043;28;20316;-67
2023/04/04 00:44:00;;;;;;;24.05;19.48;;;;;;;9.08;87.33;149578.56;5089991;28;20209;-67
2023/04/04 00:46:28;;;;;;;23.63;19.60;;;;;;;9.02;87.37;149564.47;5099592;28;20043;-66
2023/04/04 00:48:54;;;;;;;24.30;20.17;;;;;;;9.02;87.57;149564.47;5081885;28;20025;-67
2023/04/04 00:51:20;;;;;;;23.38;19.55;;;;;;;9.06;87.39;149574.66;5081964;28;20052;-67
2023/04/04 00:53:47;;;;;;;23.42;19.08;;;;;;;9.08;87.20;149578.56;5099133;28;20103;-66
2023/04/04 00:56:13;;;;;;;23.58;20.08;;;;;;;9.06;87.47;149574.66;5096825;28;20233;-66
2023/04/04 00:58:41;;;;;;;21.73;19.30;;;;;;;9.12;87.18;149590.06;5090685;28;20040;-68
2023/04/04 01:01:10;;;;;;;24.35;19.02;;;;;;;9.05;88.22;149572.13;5104890;28;20032;-66
2023/04/04 01:03:36;;;;;;;21.40;19.20;;;;;;;9.07;87.66;149575.97;5088729;28;20364;-66
2023/04/04 01:06:01;;;;;;;24.52;19.33;;;;;;;9.05;87.86;149570.81;5091089;28;20047;-66
2023/04/04 01:08:29;;;;;;;20.23;17.85;;;;;;;9.05;87.49;149572.13;5093615;28;20031;-67
2023/04/04 01:10:55;;;;;;;22.80;18.65;;;;;;;8.95;87.41;149547.78;5085975;28;20033;-67
2023/04/04 01:13:20;;;;;;;21.20;18.35;;;;;;;9.00;87.52;149559.31;5086812;28;20024;-67
2023/04/04 01:15:47;;;;;;;20.92;18.48;;;;;;;8.92;87.13;149540.13;5085653;28;20033;-67
2023/04/04 01:18:17;;;;;;;23.83;20.45;;;;;;;8.89;87.09;149532.44;5090040;28;20043;-68
2023/04/04 01:21:06;;;;;;;23.48;18.95;;;;;;;8.91;87.88;149536.28;5102932;28;20025;-68
2023/04/04 01:23:50;;;;;;;22.92;18.27;;;;;;;8.98;86.98;149554.22;5105984;28;20047;-67
2023/04/04 01:26:16;;;;;;;20.50;17.88;;;;;;;8.99;87.59;149556.72;5090608;28;20256;-67
2023/04/04 01:28:41;;;;;;;24.58;18.45;;;;;;;8.95;87.00;149546.47;5109546;28;20024;-67
2023/04/04 01:31:11;;;;;;;22.88;18.60;;;;;;;8.91;87.65;149536.28;5097719;28;20055;-66
2023/04/04 01:33:44;;;;;;;24.35;19.20;;;;;;;8.87;87.47;149526.03;5097897;28;20040;-67
2023/04/04 01:36:21;;;;;;;23.02;18.48;;;;;;;8.90;87.81;149533.72;5085267;28;20036;-67
2023/04/04 01:38:50;;;;;;;21.60;18.92;;;;;;;8.93;87.79;149541.38;5086408;28;20025;-67
2023/04/04 01:41:18;;;;;;;24.27;19.58;;;;;;;8.78;87.69;149505.53;5105446;28;20050;-67
2023/04/04 01:43:47;;;;;;;19.92;17.77;;;;;;;8.94;86.87;149545.22;5087587;28;20029;-66
2023/04/04 01:46:16;;;;;;;20.10;17.50;;;;;;;8.88;86.56;149528.56;5084971;28;20093;-67
2023/04/04 01:48:41;;;;;;;21.23;18.17;;;;;;;8.93;86.70;149541.38;5091879;28;20081;-66
2023/04/04 01:51:07;;;;;;;23.98;18.90;;;;;;;8.87;86.68;149526.03;5104886;28;20035;-66
2023/04/04 01:53:33;;;;;;;21.63;18.48;;;;;;;8.95;87.00;149546.47;5105225;28;20088;-67
2023/04/04 01:55:59;;;;;;;20.98;16.58;;;;;;;8.93;87.35;149541.38;5104768;28;20051;-67
2023/04/04 01:58:25;;;;;;;19.15;17.13;;;;;;;8.89;87.31;149531.13;5091430;28;20174;-67
2023/04/04 02:00:51;;;;;;;20.58;17.92;;;;;;;8.90;86.99;149534.97;5084795;28;20032;-67
2023/04/04 02:03:16;;;;;;;23.13;17.65;;;;;;;8.90;86.92;149533.72;5088769;28;20028;-66
2023/04/04 02:05:42;;;;;;;23.45;16.98;;;;;;;8.88;86.52;149528.56;5116923;28;20035;-66
2023/04/04 02:08:08;;;;;;;20.38;17.38;;;;;;;8.76;87.03;149500.38;5125587;28;20262;-66
2023/04/04 02:10:33;;;;;;;20.13;17.52;;;;;;;8.86;87.18;149523.44;5108984;28;20204;-64
2023/04/04 02:12:59;;;;;;;19.30;16.60;;;;;;;8.76;86.79;149499.13;5094299;28;20193;-66
2023/04/04 02:15:25;;;;;;;17.90;15.95;;;;;;;8.79;86.95;149506.78;5090044;28;20027;-65
2023/04/04 02:17:51;;;;;;;20.63;17.23;;;;;;;8.86;87.10;149523.44;5104151;28;20032;-65
2023/04/04 02:20:19;;;;;;;19.52;16.70;;;;;;;8.73;87.39;149491.44;5084551;28;20047;-66
2023/04/04 02:22:55;;;;;;;19.23;16.50;;;;;;;8.64;87.55;149470.94;5099713;28;20209;-65
2023/04/04 02:25:21;;;;;;;22.65;17.92;;;;;;;8.62;87.52;149464.53;5091413;28;20035;-66
2023/04/04 02:27:47;;;;;;;22.27;18.20;;;;;;;8.51;87.37;149437.66;5092888;28;20123;-64
2023/04/04 02:30:13;;;;;;;21.00;17.67;;;;;;;8.59;88.12;149458.16;5100852;28;20318;-66
2023/04/04 02:32:39;;;;;;;21.10;17.40;;;;;;;8.52;87.49;149440.19;5100959;28;20161;-66
2023/04/04 02:35:05;;;;;;;21.73;17.42;;;;;;;8.52;87.02;149440.19;5083360;28;20046;-66
2023/04/04 02:37:30;;;;;;;19.10;16.95;;;;;;;8.63;88.22;149467.09;5098470;28;20301;-67
2023/04/04 02:39:56;;;;;;;20.63;16.95;;;;;;;8.60;88.22;149459.44;5090224;28;20024;-68
2023/04/04 02:42:22;;;;;;;20.10;16.02;;;;;;;8.36;88.13;149400.47;5088743;28;20329;-67
2023/04/04 02:44:47;;;;;;;18.45;16.45;;;;;;;8.41;88.93;149413.28;5104379;28;20089;-66
2023/04/04 02:47:13;;;;;;;19.20;16.40;;;;;;;8.55;88.12;149447.91;5083565;28;20037;-67
2023/04/04 02:49:38;;;;;;;19.58;16.95;;;;;;;8.60;87.67;149459.44;5083548;28;20244;-68
2023/04/04 02:52:04;;;;;;;22.38;16.13;;;;;;;8.52;87.56;149438.94;5083716;28;20028;-68
2023/04/04 02:54:30;;;;;;;19.60;16.85;;;;;;;8.61;87.62;149463.25;5089648;28;20024;-67
2023/04/04 02:56:56;;;;;;;21.13;17.08;;;;;;;8.54;87.49;149445.34;5102551;28;20020;-69
2023/04/04 02:59:21;;;;;;;20.40;16.55;;;;;;;8.59;87.45;149456.84;5083851;28;20344;-68
2023/04/04 03:01:47;;;;;;;19.40;16.65;;;;;;;8.61;87.44;149463.25;5100076;28;20032;-68
2023/04/04 03:04:13;;;;;;;19.52;16.55;;;;;;;8.70;86.66;149483.75;5092075;28;20040;-68
2023/04/04 03:06:40;;;;;;;21.95;16.65;;;;;;;8.70;87.62;149485.03;5105499;28;20032;-67
2023/04/04 03:09:06;;;;;;;21.90;17.70;;;;;;;8.75;86.68;149497.84;5121584;28;20031;-67
2023/04/04 03:11:31;;;;;;;20.98;17.40;;;;;;;8.64;86.50;149469.69;5115799;28;20044;-68
2023/04/04 03:13:57;;;;;;;20.83;16.58;;;;;;;8.75;87.23;149496.53;5105992;28;20255;-69
2023/04/04 03:16:23;;;;;;;19.58;15.73;;;;;;;8.70;87.48;149485.03;5089977;28;20028;-69
2023/04/04 03:18:48;;;;;;;22.40;16.65;;;;;;;8.73;87.17;149492.69;5091717;28;20101;-69
2023/04/04 03:21:14;;;;;;;22.33;18.83;;;;;;;8.68;87.58;149478.63;5099969;28;20028;-69
2023/04/04 03:23:41;;;;;;;18.45;16.33;;;;;;;8.69;87.33;149482.44;5083245;28;20077;-68
2023/04/04 03:26:07;;;;;;;19.83;16.92;;;;;;;8.68;87.68;149478.63;5102238;28;20027;-69
2023/04/04 03:28:33;;;;;;;20.02;16.17;;;;;;;8.65;87.58;149472.25;5087786;28;20024;-67
2023/04/04 03:31:05;;;;;;;24.00;16.90;;;;;;;8.67;86.76;149477.34;5093954;28;20032;-67
2023/04/04 03:33:41;;;;;;;19.98;16.42;;;;;;;8.76;86.67;149500.38;5097508;28;20100;-67
2023/04/04 03:36:11;;;;;;;21.95;16.90;;;;;;;8.79;86.83;149506.78;5085190;28;20048;-67
2023/04/04 03:38:36;;;;;;;20.38;17.35;;;;;;;8.84;86.97;149518.34;5103090;28;20035;-68
2023/04/04 03:41:03;;;;;;;21.73;18.63;;;;;;;8.84;86.12;149518.34;5084798;28;20055;-68
2023/04/04 03:43:29;;;;;;;22.90;16.67;;;;;;;8.84;87.13;149518.34;5082987;28;20029;-68
2023/04/04 03:46:00;;;;;;;20.60;17.75;;;;;;;8.69;86.29;149482.44;5091549;28;20138;-70
2023/04/04 03:48:26;;;;;;;17.23;15.02;;;;;;;8.80;87.19;149510.63;5098609;28;20036;-69
2023/04/04 03:50:51;;;;;;;24.85;20.52;;;;;;;8.80;87.33;149510.63;5089871;28;20032;-67
2023/04/04 03:53:17;;;;;;;20.48;17.40;;;;;;;8.86;86.79;149523.44;5102978;28;20039;-68
2023/04/04 03:55:42;;;;;;;21.48;16.38;;;;;;;8.77;87.62;149502.94;5087529;28;20025;-66
2023/04/04 03:58:08;;;;;;;17.48;15.50;;;;;;;8.87;86.59;149526.03;5093462;28;20048;-66
2023/04/04 04:00:34;;;;;;;20.27;16.92;;;;;;;8.88;86.79;149528.56;5099958;28;20253;-67
2023/04/04 04:02:59;;;;;;;23.63;19.67;;;;;;;8.90;86.62;149534.97;5101869;28;20205;-67
2023/04/04 04:05:25;;;;;;;21.65;17.73;;;;;;;8.95;86.26;149546.47;5084098;28;20321;-68
2023/04/04 04:07:51;;;;;;;19.45;15.95;;;;;;;8.93;86.83;149541.38;5102910;28;20031;-67
2023/04/04 04:10:17;;;;;;;18.70;16.17;;;;;;;8.89;86.34;149531.13;5091356;28;20041;-68
2023/04/04 04:12:43;;;;;;;18.90;16.17;;;;;;;8.88;86.56;149529.88;5089546;28;20111;-67
2023/04/04 04:15:09;;;;;;;19.13;16.55;;;;;;;8.91;86.34;149537.53;5100548;28;20032;-66
2023/04/04 04:17:39;;;;;;;19.33;15.77;;;;;;;8.88;86.59;149528.56;5082618;28;20070;-68
2023/04/04 04:20:07;;;;;;;21.73;16.00;;;;;;;8.89;86.86;149532.44;5100610;28;20036;-68
2023/04/04 04:22:33;;;;;;;19.30;15.52;;;;;;;9.01;86.17;149560.56;5089138;28;20048;-67
2023/04/04 04:24:58;;;;;;;18.83;15.68;;;;;;;9.08;85.68;149578.56;5091037;28;20027;-69
2023/04/04 04:27:24;;;;;;;22.02;15.73;;;;;;;9.09;86.00;149581.06;5101494;28;20028;-70
2023/04/04 04:29:50;;;;;;;18.52;15.77;;;;;;;9.10;85.79;149583.66;5085231;28;20066;-69
2023/04/04 04:32:16;;;;;;;20.88;17.40;;;;;;;9.05;85.97;149572.13;5090846;28;20228;-69
2023/04/04 04:34:42;;;;;;;20.35;16.58;;;;;;;9.12;85.78;149590.06;5086737;28;20059;-67
2023/04/04 04:37:08;;;;;;;20.63;16.45;;;;;;;8.99;85.41;149556.72;5096190;28;20035;-68
2023/04/04 04:39:34;;;;;;;16.42;14.60;;;;;;;9.05;85.94;149570.81;5099454;28;20068;-68
2023/04/04 04:41:59;;;;;;;22.63;17.88;;;;;;;8.90;85.34;149534.97;5086311;28;20032;-67
2023/04/04 04:44:25;;;;;;;22.40;17.73;;;;;;;9.01;85.82;149560.56;5106547;28;20088;-69
2023/04/04 04:46:51;;;;;;;19.17;15.93;;;;;;;9.06;86.07;149574.66;5090050;28;20135;-70
2023/04/04 04:49:16;;;;;;;18.90;15.93;;;;;;;9.14;85.22;149595.16;5085494;28;20559;-69
2023/04/04 04:51:42;;;;;;;18.70;15.25;;;;;;;9.29;84.77;149631.03;5085479;28;20044;-69
2023/04/04 04:54:08;;;;;;;17.90;15.98;;;;;;;9.34;84.45;149643.88;5085509;28;20033;-68
2023/04/04 04:56:35;;;;;;;18.42;15.73;;;;;;;9.42;84.11;149664.38;5085743;28;20036;-69
2023/04/04 04:59:00;;;;;;;16.65;14.27;;;;;;;9.44;83.76;149668.22;5089989;28;20073;-70
2023/04/04 05:01:26;;;;;;;18.23;14.93;;;;;;;9.38;83.69;149654.13;5093202;28;20029;-68
2023/04/04 05:03:51;;;;;;;18.23;15.77;;;;;;;9.53;84.11;149691.25;5092992;28;20020;-69
2023/04/04 05:06:17;;;;;;;18.67;16.13;;;;;;;9.55;83.88;149696.41;5114430;28;20027;-70
2023/04/04 05:08:42;;;;;;;16.92;14.48;;;;;;;9.46;83.15;149674.63;5126602;28;20028;-68
2023/04/04 05:11:08;;;;;;;17.60;14.82;;;;;;;9.53;82.84;149690.00;5107774;28;20046;-69
2023/04/04 05:13:34;;;;;;;17.83;14.80;;;;;;;9.44;83.18;149669.47;5090858;28;20175;-68
2023/04/04 05:15:59;;;;;;;19.90;14.82;;;;;;;9.39;83.72;149656.69;5093674;28;20047;-68
2023/04/04 05:18:26;;;;;;;16.13;14.13;;;;;;;9.47;83.56;149677.16;5102083;28;20036;-69
2023/04/04 05:20:55;;;;;;;17.35;13.80;;;;;;;9.61;82.82;149710.50;5085312;28;20071;-68
2023/04/04 05:23:21;;;;;;;14.93;13.25;;;;;;;9.58;82.66;149702.81;5105083;28;20121;-68
2023/04/04 05:25:52;;;;;;;16.52;14.18;;;;;;;9.73;82.74;149741.22;5090570;28;20121;-71
2023/04/04 05:28:19;;;;;;;19.77;16.80;;;;;;;9.54;82.57;149692.56;5096253;28;20028;-69
2023/04/04 05:30:45;;;;;;;16.65;14.23;;;;;;;9.29;83.10;149632.34;5099925;28;20036;-69
2023/04/04 05:33:10;;;;;;;17.42;14.35;;;;;;;9.41;82.50;149661.81;5103815;28;20052;-70
2023/04/04 05:35:36;;;;;;;16.90;13.88;;;;;;;9.51;82.41;149686.16;5083684;28;20060;-70
2023/04/04 05:38:02;;;;;;;15.65;14.05;;;;;;;9.72;82.38;149738.69;5084322;28;20024;-70
2023/04/04 05:40:27;;;;;;;17.35;13.90;;;;;;;9.91;81.18;149784.84;5097239;28;20036;-68
2023/04/04 05:42:57;;;;;;;19.70;13.98;;;;;;;9.85;80.32;149770.75;5104007;28;20028;-69
2023/04/04 05:45:23;;;;;;;14.52;12.48;;;;;;;10.23;79.87;149864.31;5102201;28;20059;-69
2023/04/04 05:47:49;;;;;;;15.45;12.40;;;;;;;10.32;78.41;149887.41;5083765;28;20118;-68
2023/04/04 05:50:15;;;;;;;14.82;12.65;;;;;;;10.73;77.60;149988.75;5084752;28;20028;-69
2023/04/04 05:52:41;;;;;;;13.85;12.35;;;;;;;10.89;77.56;150029.81;5098581;28;20036;-70
2023/04/04 05:55:06;;;;;;;16.17;12.48;;;;;;;10.94;76.24;150041.34;5095507;28;20231;-69
2023/04/04 05:57:33;;;;;;;12.48;11.18;;;;;;;11.13;76.56;150090.09;5088898;28;20062;-70
2023/04/04 05:59:58;;;;;;;13.40;12.00;;;;;;;11.16;74.60;150097.78;5104857;28;20028;-69
2023/04/04 06:02:25;;;;;;;15.32;11.65;;;;;;;10.94;75.52;150041.34;5083620;28;20032;-71
2023/04/04 06:04:50;;;;;;;13.15;11.52;;;;;;;11.11;74.51;150084.94;5099696;28;20551;-69
2023/04/04 06:07:17;;;;;;;15.40;11.98;;;;;;;11.21;73.70;150110.59;5121521;28;20031;-69
2023/04/04 06:09:42;;;;;;;14.13;11.48;;;;;;;10.93;74.94;150040.06;5118969;27;20100;-69
2023/04/04 06:12:08;;;;;;;12.90;11.35;;;;;;;10.82;75.20;150011.84;5113837;28;20020;-68
2023/04/04 06:14:37;;;;;;;16.45;11.50;;;;;;;10.77;74.44;150000.28;5103565;28;20020;-68
2023/04/04 06:17:03;;;;;;;13.52;11.75;;;;;;;10.72;75.51;149987.47;5087545;28;20024;-70
2023/04/04 06:19:29;;;;;;;14.82;11.85;;;;;;;10.59;76.20;149955.41;5096440;28;20040;-70
2023/04/04 06:21:55;;;;;;;14.10;11.68;;;;;;;10.80;75.98;150006.69;5097161;28;20069;-69
2023/04/04 06:24:20;;;;;;;16.42;12.32;;;;;;;11.32;76.35;150137.56;5085743;28;20033;-71
2023/04/04 06:26:50;;;;;;;14.63;12.25;;;;;;;11.28;75.16;150126.03;5103256;28;20215;-70
2023/04/04 06:29:17;;;;;;;12.23;10.80;;;;;;;11.99;74.09;150303.19;5085733;28;20040;-70
2023/04/04 06:31:43;;;;;;;12.93;11.52;;;;;;;12.07;72.73;150323.69;5091885;28;20281;-72
2023/04/04 06:34:08;;;;;;;14.00;11.38;;;;;;;12.30;72.13;150381.53;5082315;28;20048;-70
2023/04/04 06:36:34;;;;;;;11.20;10.00;;;;;;;12.47;71.41;150423.91;5088048;28;20325;-70
2023/04/04 06:39:00;;;;;;;12.68;11.02;;;;;;;12.58;70.62;150450.84;5104214;28;20055;-70
2023/04/04 06:41:26;;;;;;;11.18;9.82;;;;;;;13.26;68.49;150620.44;5083087;28;20190;-70
2023/04/04 06:43:51;;;;;;;12.13;10.38;;;;;;;13.39;66.87;150652.63;5098609;28;20020;-71
2023/04/04 06:46:17;;;;;;;12.32;9.50;;;;;;;14.02;66.68;150809.44;5093632;28;20094;-71
2023/04/04 06:48:43;;;;;;;10.13;9.13;;;;;;;13.66;64.04;150719.47;5089256;28;20069;-70
2023/04/04 06:51:10;;;;;;;11.27;9.07;;;;;;;13.14;65.63;150590.91;5107970;28;20034;-70
2023/04/04 06:53:36;;;;;;;10.23;8.93;;;;;;;13.82;65.29;150760.56;5103491;28;20055;-70
2023/04/04 06:56:03;;;;;;;10.30;8.15;;;;;;;14.23;64.51;150862.16;5087073;28;20174;-70
2023/04/04 06:58:29;;;;;;;10.77;9.30;;;;;;;14.06;63.64;150819.72;5105224;28;20024;-71
2023/04/04 07:00:58;;;;;;;11.70;9.00;;;;;;;14.27;63.24;150873.72;5096333;28;20029;-71
2023/04/04 07:03:25;;;;;;;10.43;8.52;;;;;;;14.66;62.28;150970.25;5086174;28;20087;-70
2023/04/04 07:05:51;;;;;;;9.65;8.65;;;;;;;14.69;60.57;150976.69;5110519;28;20082;-70
2023/04/04 07:08:16;;;;;;;10.98;9.25;;;;;;;15.23;61.58;151111.78;5123803;28;20015;-71
2023/04/04 07:10:42;;;;;;;11.55;9.43;;;;;;;14.52;60.28;150934.19;5110638;28;20050;-71
2023/04/04 07:13:08;;;;;;;13.65;9.85;;;;;;;13.44;62.78;150666.75;5096905;28;20320;-70
2023/04/04 07:15:34;;;;;;;12.38;9.85;;;;;;;13.17;64.31;150597.28;5101252;28;20053;-69
2023/04/04 07:18:00;;;;;;;10.88;9.65;;;;;;;13.04;63.12;150565.16;5123778;27;20380;-69
2023/04/04 07:20:27;;;;;;;12.60;9.60;;;;;;;13.40;63.72;150656.47;5104465;28;20036;-70
2023/04/04 07:22:53;;;;;;;11.52;10.00;;;;;;;12.93;65.80;150539.47;5088480;28;20039;-69
2023/04/04 07:25:19;;;;;;;13.00;10.32;;;;;;;12.68;65.01;150475.25;5092189;28;20274;-71
2023/04/04 07:27:45;;;;;;;15.98;14.27;;;;;;;12.80;65.41;150506.09;5098471;28;20054;-71
2023/04/04 07:30:11;;;;;;;15.38;11.02;;;;;;;12.59;65.58;150454.69;5092203;28;20055;-70
2023/04/04 07:32:37;;;;;;;12.82;9.50;;;;;;;12.74;64.63;150490.66;5099797;28;20040;-69
2023/04/04 07:35:05;;;;;;;11.90;9.10;;;;;;;12.57;63.80;150449.56;5086543;28;20034;-69
2023/04/04 07:37:32;;;;;;;12.52;9.45;;;;;;;12.48;66.20;150426.44;5082544;28;20044;-68
2023/04/04 07:39:58;;;;;;;12.38;10.27;;;;;;;12.31;65.18;150384.06;5089738;28;20049;-70
2023/04/04 07:42:24;;;;;;;12.75;10.00;;;;;;;12.92;65.72;150535.63;5100723;28;20091;-69
2023/04/04 07:44:50;;;;;;;12.25;9.93;;;;;;;12.92;63.95;150535.63;5083392;28;20016;-69
2023/04/04 07:47:16;;;;;;;15.38;9.57;;;;;;;13.12;63.42;150585.72;5082664;28;20106;-69
2023/04/04 07:49:42;;;;;;;15.40;9.65;;;;;;;12.68;62.93;150476.53;5096326;28;20091;-71
2023/04/04 07:52:08;;;;;;;11.48;8.60;;;;;;;13.07;63.56;150572.91;5094690;28;20275;-71
2023/04/04 07:54:34;;;;;;;10.27;8.80;;;;;;;12.83;62.89;150512.53;5083095;28;20024;-70
2023/04/04 07:57:00;;;;;;;14.27;9.13;;;;;;;12.34;64.37;150391.78;5082670;28;20344;-70
2023/04/04 07:59:26;;;;;;;14.98;10.20;;;;;;;12.61;65.19;150458.53;5102052;28;20032;-70
2023/04/04 08:01:51;;;;;;;12.60;9.32;;;;;;;13.02;64.84;150561.31;5090421;28;20035;-70
2023/04/04 08:04:17;;;;;;;15.90;9.35;;;;;;;13.21;64.12;150607.56;5096270;28;20028;-69
2023/04/04 08:06:43;;;;;;;11.85;8.45;;;;;;;13.28;63.53;150625.56;5119190;28;20072;-70
2023/04/04 08:09:08;;;;;;;11.32;8.27;;;;;;;13.37;63.11;150648.75;5127180;27;20031;-71
2023/04/04 08:11:34;;;;;;;16.90;8.48;;;;;;;13.30;63.55;150632.00;5116402;28;20026;-70
2023/04/04 08:14:00;;;;;;;11.75;8.43;;;;;;;13.33;63.63;150637.16;5111469;28;20134;-70
2023/04/04 08:16:25;;;;;;;11.38;8.52;;;;;;;13.53;64.16;150688.59;5095953;28;20036;-70
2023/04/04 08:18:51;;;;;;;11.40;7.93;;;;;;;13.71;63.39;150733.59;5092048;28;20035;-70
2023/04/04 08:21:18;;;;;;;11.13;8.57;;;;;;;13.71;62.39;150733.59;5105155;28;20055;-70
2023/04/04 08:23:44;;;;;;;10.57;8.15;;;;;;;13.63;62.64;150714.28;5084856;28;20222;-71
2023/04/04 08:26:10;;;;;;;13.85;8.18;;;;;;;13.74;61.21;150740.03;5092528;28;20028;-71
2023/04/04 08:28:37;;;;;;;12.57;7.88;;;;;;;13.95;62.04;150794.03;5098345;28;20032;-69
2023/04/04 08:31:03;;;;;;;15.18;8.00;;;;;;;13.93;61.70;150788.84;5102613;28;20127;-70
2023/04/04 08:33:28;;;;;;;13.25;7.93;;;;;;;14.14;61.84;150840.31;5086592;28;20056;-72
2023/04/04 08:35:56;;;;;;;14.90;7.55;;;;;;;14.54;60.22;150939.34;5097962;28;20032;-68
2023/04/04 08:38:22;;;;;;;10.65;7.55;;;;;;;15.10;59.53;151080.88;5087114;28;20056;-70
2023/04/04 08:40:48;;;;;;;9.00;6.40;;;;;;;15.27;57.60;151122.09;5086013;28;20274;-70
2023/04/04 08:43:15;;;;;;;10.07;7.68;;;;;;;15.87;57.08;151272.72;5094311;28;20054;-70
2023/04/04 08:45:43;;;;;;;11.88;7.53;;;;;;;14.96;55.08;151046.19;5102392;28;20035;-70
2023/04/04 08:48:11;;;;;;;14.70;6.72;;;;;;;15.74;56.65;151239.22;5085727;28;20028;-71
2023/04/04 08:50:40;;;;;;;11.75;6.82;;;;;;;15.90;52.87;151280.44;5085696;28;20032;-70
2023/04/04 08:53:09;;;;;;;13.23;6.10;;;;;;;16.01;52.39;151308.78;5101422;28;20028;-70
2023/04/04 08:55:35;;;;;;;12.68;6.20;;;;;;;16.46;52.69;151419.53;5094612;28;20057;-70
2023/04/04 08:58:02;;;;;;;12.07;6.63;;;;;;;16.26;50.62;151370.63;5097917;28;20099;-69
2023/04/04 09:00:28;;;;;;;9.00;6.25;;;;;;;16.34;50.98;151391.19;5086567;28;20036;-71
2023/04/04 09:03:05;;;;;;;9.73;5.82;;;;;;;16.55;52.38;151444.00;5106140;28;20079;-70
2023/04/04 09:05:31;;;;;;;11.40;6.40;;;;;;;16.24;51.24;151364.16;5110581;28;20024;-70
2023/04/04 09:07:58;;;;;;;9.82;5.22;;;;;;;15.33;50.73;151137.50;5105656;28;20067;-70
2023/04/04 09:10:23;;;;;;;12.73;5.63;;;;;;;15.01;50.69;151057.75;5095951;28;20031;-70
2023/04/04 09:12:50;;;;;;;7.50;4.53;;;;;;;14.57;51.07;150948.34;5089206;28;20028;-70
2023/04/04 09:15:16;;;;;;;7.88;4.40;;;;;;;15.07;50.71;151071.91;5105411;28;20047;-69
2023/04/04 09:17:42;;;;;;;5.30;4.60;;;;;;;15.40;52.09;151154.25;5085485;28;20024;-71
2023/04/04 09:20:39;;;;;;;7.80;4.85;;;;;;;15.77;51.99;151248.22;5100951;28;20095;-71
2023/04/04 09:23:13;;;;;;;9.88;5.13;;;;;;;15.67;49.74;151222.47;5090057;28;20020;-70
2023/04/04 09:25:51;;;;;;;16.77;5.25;;;;;;;15.75;51.00;151241.75;5096661;28;20063;-70
2023/04/04 09:28:18;;;;;;;7.85;4.45;;;;;;;15.54;49.20;151191.56;5098255;28;20042;-70
2023/04/04 09:30:47;;;;;;;11.07;4.70;;;;;;;15.38;49.57;151149.09;5095478;28;20040;-70
2023/04/04 09:33:14;;;;;;;7.13;4.85;;;;;;;14.99;49.40;151053.88;5095495;28;20321;-69
2023/04/04 09:35:44;;;;;;;11.55;4.90;;;;;;;15.32;49.86;151136.25;5094784;28;20036;-70
2023/04/04 09:38:10;;;;;;;15.02;5.90;;;;;;;15.55;50.49;151192.88;5096082;28;20069;-69
2023/04/04 09:40:36;;;;;;;11.80;5.45;;;;;;;15.52;50.52;151186.44;5095504;28;20070;-70
2023/04/04 09:43:06;;;;;;;7.10;5.40;;;;;;;15.49;51.08;151177.41;5096447;28;20054;-70
2023/04/04 09:45:38;;;;;;;10.27;5.35;;;;;;;15.47;49.90;151173.53;5102252;28;20039;-71
2023/04/04 09:48:05;;;;;;;8.98;4.95;;;;;;;15.44;50.20;151165.81;5094433;28;20028;-70
2023/04/04 09:50:32;;;;;;;6.47;4.43;;;;;;;15.68;51.61;151225.06;5084492;28;20031;-71
2023/04/04 09:52:59;;;;;;;9.40;4.88;;;;;;;15.66;50.72;151221.19;5098351;28;20266;-69
2023/04/04 09:55:51;;;;;;;12.80;5.40;;;;;;;15.85;50.40;151268.88;5094151;28;20028;-70
2023/04/04 09:58:20;;;;;;;9.73;5.18;;;;;;;15.75;50.13;151243.06;5094212;28;20080;-70
2023/04/04 10:00:47;;;;;;;9.63;5.20;;;;;;;15.81;50.29;151258.56;5095017;28;20035;-70
2023/04/04 10:03:20;;;;;;;9.77;5.10;;;;;;;15.87;50.19;151272.72;5093332;28;20038;-69
2023/04/04 10:05:46;;;;;;;10.55;4.90;;;;;;;15.85;50.14;151267.59;5096524;28;20081;-70
2023/04/04 10:08:21;;;;;;;8.40;5.13;;;;;;;15.61;49.16;151207.03;5092151;28;20095;-72
2023/04/04 10:10:48;;;;;;;9.95;4.65;;;;;;;15.77;50.19;151246.94;5094133;28;20020;-70
2023/04/04 10:13:21;;;;;;;14.13;5.20;;;;;;;15.88;50.07;151276.59;5091228;28;20028;-71
2023/04/04 10:15:47;;;;;;;8.88;4.68;;;;;;;15.87;49.98;151274.00;5099818;28;20031;-71
2023/04/04 10:18:14;;;;;;;13.75;5.18;;;;;;;15.69;50.93;151228.91;5083904;28;20182;-70
2023/04/04 10:20:42;;;;;;;7.88;5.30;;;;;;;15.88;50.51;151276.59;5084116;28;20118;-71
2023/04/04 10:23:07;;;;;;;12.38;4.80;;;;;;;15.83;50.56;151263.72;5092360;28;20023;-70
2023/04/04 10:25:35;;;;;;;7.07;5.10;;;;;;;15.52;48.90;151185.16;5093863;28;20055;-70
2023/04/04 10:28:01;;;;;;;10.30;5.38;;;;;;;15.68;49.71;151226.31;5089491;28;20204;-70
2023/04/04 10:30:27;;;;;;;8.55;5.15;;;;;;;15.80;49.78;151254.69;5087113;28;20033;-71
2023/04/04 10:33:05;;;;;;;14.50;5.60;;;;;;;15.76;49.19;151245.66;5110912;28;20039;-70
2023/04/04 10:35:33;;;;;;;12.25;5.45;;;;;;;15.40;49.07;151154.25;5106054;28;20131;-70
2023/04/04 10:38:02;;;;;;;14.88;5.32;;;;;;;15.47;49.49;151172.28;5089920;28;20060;-70
2023/04/04 10:40:37;;;;;;;9.45;5.30;;;;;;;15.50;49.11;151181.25;5084758;28;20034;-69
2023/04/04 10:43:04;;;;;;;11.05;5.63;;;;;;;15.45;49.83;151167.09;5089759;28;20039;-71
2023/04/04 10:45:37;;;;;;;9.88;5.47;;;;;;;15.58;49.37;151200.59;5102495;28;20028;-70
2023/04/04 10:48:03;;;;;;;13.38;5.90;;;;;;;15.42;48.66;151160.69;5083869;28;20032;-70
2023/04/04 10:50:32;;;;;;;8.50;5.50;;;;;;;15.36;49.16;151146.53;5101587;28;20027;-71
2023/04/04 10:53:00;;;;;;;15.43;5.53;;;;;;;14.75;49.70;150993.41;5103892;28;20085;-69
2023/04/04 10:55:28;;;;;;;11.85;5.95;;;;;;;15.32;50.26;151136.25;5092026;28;20092;-71
2023/04/04 10:57:55;;;;;;;10.30;5.75;;;;;;;15.54;50.10;151191.56;5083222;28;20016;-70
2023/04/04 11:00:25;;;;;;;10.27;4.95;;;;;;;15.68;50.08;151225.06;5082265;28;20328;-69
2023/04/04 11:02:58;;;;;;;14.98;5.60;;;;;;;15.60;48.82;151204.44;5104089;28;20028;-70
2023/04/04 11:05:26;;;;;;;15.52;5.70;;;;;;;15.37;48.57;151147.81;5087434;28;20035;-69
2023/04/04 11:08:03;;;;;;;19.88;6.30;;;;;;;15.09;50.01;151077.03;5103453;28;20028;-70
2023/04/04 11:10:34;;;;;;;15.77;6.07;;;;;;;15.08;49.61;151074.44;5094290;28;20178;-70
2023/04/04 11:13:08;;;;;;;10.57;5.53;;;;;;;14.95;49.37;151043.59;5097721;28;20089;-71
2023/04/04 11:15:57;;;;;;;12.90;5.90;;;;;;;15.19;50.31;151102.75;5081672;28;20039;-71